^^
Datos históricos de la estación: Murcia-Puente Tocinos
Diario Informe para Junio 27, 2019 Unidades:  Métrico    Ingés   Ambas
Diario Semanal Mensual Anual
  Máxima: Mínima: Promedio:
Temperatura: 35.9 °C 25.2 °C 30.5 °C
Punto de rocio: 19.6 °C 5.9 °C 10.8 °C
Humedad: 62% 16% 32%
Velocidad viento: 28.2km/h 0km/h 10.5km/h
Racha viento: 50.1km/h - -
Viento- - SO
Presión: 1006.5 hPa 1001.7 hPa -
Precipitación: 0.0 mm    
 
 
Tabla de datos para Junio 27, 2019
Hora Temperatura Punto de rocio Presión Viento Velocidad viento Racha viento Humedad Intensidad lluvia(por hora) Nubes
00:04 27.6 °C 19.6 °C 1006.4 hPa NNE 5 km/h 9.7 km/h 62% 0.0 mm
00:09 27.5 °C 19.6 °C 1006.4 hPa NE 4.9 km/h 8 km/h 62% 0.0 mm
00:14 27.5 °C 19.6 °C 1006.4 hPa NE 4.7 km/h 4.8 km/h 62% 0.0 mm
00:19 27.6 °C 19.2 °C 1006.4 hPa NE 3.2 km/h 5 km/h 60.5% 0.0 mm
00:24 27.6 °C 19.1 °C 1006.3 hPa Calm   5.6 km/h 59.7% 0.0 mm
00:29 27.7 °C 19.3 °C 1006.3 hPa NNO 0.7 km/h 5.8 km/h 60.4% 0.0 mm
00:34 27.7 °C 19.5 °C 1006.3 hPa NO 2.2 km/h 8.7 km/h 61% 0.0 mm
00:39 27.7 °C 19.5 °C 1006.3 hPa NO 2.7 km/h 9.7 km/h 61% 0.0 mm
00:44 27.6 °C 19.5 °C 1006.3 hPa NO 3.9 km/h 9.7 km/h 61.3% 0.0 mm
00:49 27.5 °C 19.4 °C 1006.4 hPa NO 3.6 km/h 8 km/h 61.4% 0.0 mm
00:54 27.5 °C 19.4 °C 1006.4 hPa ONO 2.9 km/h 7.4 km/h 61.6% 0.0 mm
00:59 27.4 °C 19.5 °C 1006.4 hPa ONO 3 km/h 8 km/h 62% 0.0 mm
01:04 27.4 °C 19.5 °C 1006.5 hPa ONO 3.2 km/h 8 km/h 62% 0.0 mm
01:09 27.4 °C 19.3 °C 1006.5 hPa ONO 3.1 km/h 5.8 km/h 61.2% 0.0 mm
01:14 27.6 °C 19.2 °C 1006.5 hPa ONO 2.9 km/h 6.4 km/h 60.6% 0.0 mm
01:19 27.6 °C 19 °C 1006.5 hPa ONO 2.7 km/h 4.8 km/h 59.6% 0.0 mm
01:24 27.7 °C 19 °C 1006.3 hPa ONO 2.2 km/h 4.8 km/h 59.1% 0.0 mm
01:29 27.7 °C 19 °C 1006.3 hPa SO 2.5 km/h 7.4 km/h 59% 0.0 mm
01:34 27.8 °C 19.1 °C 1006.3 hPa Sur 3.2 km/h 10 km/h 59% 0.0 mm
01:39 27.8 °C 19.1 °C 1006.1 hPa Sur 4 km/h 11.1 km/h 59% 0.0 mm
01:44 27.8 °C 19.1 °C 1006.1 hPa SSO 5.8 km/h 11.3 km/h 59% 0.0 mm
01:49 27.8 °C 19 °C 1006.1 hPa SSO 5.8 km/h 10 km/h 59% 0.0 mm
01:54 27.8 °C 19 °C 1006.0 hPa Sur 5.8 km/h 10 km/h 59% 0.0 mm
01:59 27.7 °C 18.9 °C 1006.0 hPa Sur 6 km/h 9.7 km/h 59% 0.0 mm
02:04 27.7 °C 18.9 °C 1006.0 hPa SE 6.5 km/h 9.7 km/h 59% 0.0 mm
02:09 27.6 °C 18.9 °C 1006.0 hPa SSE 6 km/h 11.1 km/h 59% 0.0 mm
02:14 27.3 °C 18.6 °C 1006.0 hPa Sur 5 km/h 11.3 km/h 59% 0.0 mm
02:19 27.3 °C 18.6 °C 1006.0 hPa SSO 5.4 km/h 9.7 km/h 59% 0.0 mm
02:24 27.3 °C 18.6 °C 1005.9 hPa SSO 6.5 km/h 9.7 km/h 59% 0.0 mm
02:29 27.3 °C 18.5 °C 1005.9 hPa SSO 6.2 km/h 10 km/h 58.5% 0.0 mm
02:34 27.3 °C 18.3 °C 1005.9 hPa Sur 5.8 km/h 9.7 km/h 58% 0.0 mm
02:39 27.4 °C 18.4 °C 1005.9 hPa SSO 5.5 km/h 8 km/h 58% 0.0 mm
02:44 27.4 °C 18.3 °C 1005.9 hPa SSO 4.7 km/h 6.4 km/h 57.8% 0.0 mm
02:49 27.4 °C 17.7 °C 1005.9 hPa OSO 4.4 km/h 9.3 km/h 55.5% 0.0 mm
02:54 27.4 °C 16.2 °C 1005.9 hPa SO 3.9 km/h 13 km/h 50.3% 0.0 mm
02:59 27.7 °C 14.4 °C 1005.9 hPa OSO 4.7 km/h 13.7 km/h 44.3% 0.0 mm
03:04 27.8 °C 13 °C 1005.9 hPa OSO 6.5 km/h 14.5 km/h 40% 0.0 mm
03:09 28 °C 11.8 °C 1005.8 hPa SO 6.6 km/h 14.5 km/h 36.8% 0.0 mm
03:14 28.2 °C 11.5 °C 1005.8 hPa SO 6.9 km/h 11.3 km/h 35.6% 0.0 mm
03:19 28.3 °C 11 °C 1005.9 hPa SO 6.9 km/h 11.9 km/h 34.1% 0.0 mm
03:24 28.3 °C 10.9 °C 1005.9 hPa OSO 6.9 km/h 11.3 km/h 34% 0.0 mm
03:29 28.3 °C 11 °C 1005.9 hPa SO 6.6 km/h 9.7 km/h 34.1% 0.0 mm
03:34 28.3 °C 12.8 °C 1005.9 hPa Sur 5.8 km/h 9.7 km/h 38.5% 0.0 mm
03:39 28.1 °C 14.6 °C 1005.9 hPa Sur 6.1 km/h 11.1 km/h 43.8% 0.0 mm
03:44 27.8 °C 14.7 °C 1005.9 hPa SO 6.9 km/h 11.3 km/h 44.8% 0.0 mm
03:49 27.6 °C 14.3 °C 1005.9 hPa SO 6.8 km/h 9.7 km/h 44.2% 0.0 mm
03:54 27.6 °C 13.6 °C 1005.8 hPa SO 6.5 km/h 10 km/h 42.3% 0.0 mm
03:59 27.7 °C 13 °C 1005.8 hPa SO 6.5 km/h 10 km/h 40.3% 0.0 mm
04:04 27.8 °C 12.4 °C 1005.8 hPa SO 6.5 km/h 11.1 km/h 38.6% 0.0 mm
04:09 27.9 °C 11.8 °C 1005.8 hPa OSO 6 km/h 11.3 km/h 36.9% 0.0 mm
04:14 28 °C 10.8 °C 1005.8 hPa OSO 5 km/h 11.9 km/h 34.2% 0.0 mm
04:19 28 °C 10.7 °C 1005.8 hPa OSO 5.2 km/h 11.3 km/h 33.9% 0.0 mm
04:24 28 °C 10.3 °C 1005.7 hPa Oeste 5.8 km/h 11.1 km/h 33.2% 0.0 mm
04:29 27.9 °C 9.7 °C 1005.7 hPa Oeste 5.5 km/h 11.3 km/h 32.1% 0.0 mm
04:34 27.8 °C 9.6 °C 1005.8 hPa Oeste 5 km/h 9.7 km/h 32% 0.0 mm
04:39 27.7 °C 9.6 °C 1005.8 hPa Sur 4.4 km/h 8 km/h 32.3% 0.0 mm
04:44 27.7 °C 10.1 °C 1005.8 hPa SSE 3.2 km/h 6.4 km/h 33.3% 0.0 mm
04:49 27.6 °C 10.3 °C 1005.8 hPa SSE 3.1 km/h 6.9 km/h 34% 0.0 mm
04:54 27.5 °C 10.6 °C 1005.8 hPa SE 2.9 km/h 9.3 km/h 35% 0.0 mm
04:59 27.3 °C 11 °C 1005.8 hPa ESE 3.6 km/h 9.7 km/h 36% 0.0 mm
05:04 27.1 °C 11 °C 1005.8 hPa SE 5 km/h 10 km/h 36.6% 0.0 mm
05:09 26.9 °C 11 °C 1005.8 hPa SE 5.2 km/h 10.3 km/h 37% 0.0 mm
05:14 26.7 °C 10.8 °C 1005.8 hPa SSE 5.8 km/h 11.3 km/h 37% 0.0 mm
05:19 26.7 °C 10.8 °C 1005.9 hPa SSE 6.4 km/h 11.3 km/h 37% 0.0 mm
05:24 26.6 °C 10.7 °C 1005.9 hPa Sur 7.6 km/h 11.3 km/h 37% 0.0 mm
05:29 26.6 °C 10.7 °C 1005.9 hPa Sur 7 km/h 10 km/h 37% 0.0 mm
05:34 26.4 °C 10.6 °C 1006.0 hPa SSE 5.8 km/h 10 km/h 37% 0.0 mm
05:39 26.4 °C 10.6 °C 1006.0 hPa Sur 6 km/h 11.1 km/h 37% 0.0 mm
05:44 26.3 °C 10.8 °C 1006.0 hPa Sur 6.5 km/h 11.3 km/h 37.8% 0.0 mm
05:49 26.3 °C 10.8 °C 1006.0 hPa SSO 6.5 km/h 9.7 km/h 38% 0.0 mm
05:54 26.2 °C 10.8 °C 1006.0 hPa Sur 6.5 km/h 11.1 km/h 37.9% 0.0 mm
05:59 26.2 °C 10.2 °C 1006.0 hPa SSO 6.5 km/h 11.3 km/h 36.5% 0.0 mm
06:04 26.2 °C 10 °C 1006.0 hPa SSO 6.5 km/h 11.3 km/h 36% 0.0 mm
06:09 26.2 °C 10 °C 1006.0 hPa Sur 6 km/h 11.1 km/h 36% 0.0 mm
06:14 26.2 °C 9.6 °C 1006.0 hPa SSE 5 km/h 11.3 km/h 35.2% 0.0 mm
06:19 26.1 °C 10.1 °C 1006.0 hPa ESE 5.2 km/h 9.7 km/h 36.7% 0.0 mm
06:24 25.8 °C 10.2 °C 1006.0 hPa ESE 5.8 km/h 9.5 km/h 37.3% 0.0 mm
06:29 25.5 °C 10.1 °C 1006.0 hPa ESE 5.5 km/h 9.7 km/h 37.9% 0.0 mm
06:34 25.3 °C 9.8 °C 1006.1 hPa SE 5 km/h 11.1 km/h 37.5% 0.0 mm
06:39 25.2 °C 9.6 °C 1006.1 hPa SSE 5 km/h 11.3 km/h 37.2% 0.0 mm
06:44 25.2 °C 9.1 °C 1006.1 hPa SSE 5 km/h 9.3 km/h 36.1% 0.0 mm
06:49 25.3 °C 9 °C 1006.1 hPa SSE 5.2 km/h 9.7 km/h 35.7% 0.0 mm
06:54 25.3 °C 8.7 °C 1006.0 hPa SSE 5.8 km/h 10 km/h 35% 0.0 mm
06:59 25.3 °C 8.6 °C 1006.0 hPa SE 6 km/h 10 km/h 34.7% 0.0 mm
07:04 25.4 °C 8.4 °C 1006.0 hPa SSE 6.5 km/h 10 km/h 34% 0.0 mm
07:09 25.4 °C 8.3 °C 1006.0 hPa Sur 6.5 km/h 9.7 km/h 33.9% 0.0 mm
07:14 25.4 °C 8.4 °C 1006.0 hPa Sur 6.5 km/h 9.7 km/h 33.9% 0.0 mm
07:19 25.4 °C 8 °C 1006.3 hPa Sur 5.4 km/h 8 km/h 33.2% 0.0 mm
07:24 25.5 °C 7.9 °C 1006.3 hPa SSO 3.2 km/h 9.5 km/h 32.8% 0.0 mm
07:29 25.7 °C 7.8 °C 1006.3 hPa Sur 4 km/h 9.7 km/h 32.1% 0.0 mm
07:34 25.8 °C 7.6 °C 1006.3 hPa Sur 5.8 km/h 11.1 km/h 31.6% 0.0 mm
07:39 25.8 °C 7.7 °C 1006.1 hPa SSO 6.3 km/h 11.3 km/h 31.6% 0.0 mm
07:44 25.8 °C 7.4 °C 1006.1 hPa SSO 7.6 km/h 11.3 km/h 31% 0.0 mm
07:49 25.8 °C 7.4 °C 1006.2 hPa SSO 7.4 km/h 11.3 km/h 31% 0.0 mm
07:54 26 °C 7.3 °C 1006.2 hPa SO 6.9 km/h 11.3 km/h 30.5% 0.0 mm
07:59 26.2 °C 7.2 °C 1006.2 hPa SO 6.8 km/h 12.2 km/h 30.1% 0.0 mm
08:04 26.3 °C 7.3 °C 1006.3 hPa SSO 6.5 km/h 13 km/h 30% 0.0 mm
08:09 26.3 °C 7.3 °C 1006.3 hPa SSO 6.6 km/h 11.3 km/h 30% 0.0 mm
08:14 26.3 °C 7.4 °C 1006.3 hPa Sur 6.9 km/h 11.1 km/h 30% 0.0 mm
08:19 26.4 °C 7.6 °C 1006.3 hPa Sur 6.9 km/h 11.3 km/h 30.4% 0.0 mm
08:24 26.4 °C 7.9 °C 1006.2 hPa Sur 6.9 km/h 9.7 km/h 31% 0.0 mm
08:29 26.4 °C 7.9 °C 1006.2 hPa Sur 6.3 km/h 8.4 km/h 31% 0.0 mm
08:34 26.6 °C 8 °C 1006.3 hPa Sur 5 km/h 9.5 km/h 30.9% 0.0 mm
08:39 26.7 °C 8.1 °C 1006.3 hPa SSO 5 km/h 11.1 km/h 30.9% 0.0 mm
08:44 26.8 °C 8.1 °C 1006.3 hPa SO 5 km/h 11.3 km/h 30.7% 0.0 mm
08:49 26.9 °C 7.8 °C 1006.5 hPa SO 5 km/h 9.5 km/h 30% 0.0 mm
08:54 27.1 °C 7.7 °C 1006.5 hPa SSO 5 km/h 13.7 km/h 29.3% 0.0 mm
08:59 27.1 °C 7.5 °C 1006.5 hPa SSO 6.5 km/h 14.8 km/h 28.9% 0.0 mm
09:04 27.1 °C 7.5 °C 1006.5 hPa SSO 9.5 km/h 14.5 km/h 29% 0.0 mm
09:09 27.2 °C 7.6 °C 1006.3 hPa SSO 9.2 km/h 12.9 km/h 29% 0.0 mm
09:14 27.3 °C 7.4 °C 1006.3 hPa SO 8.4 km/h 11.3 km/h 28.3% 0.0 mm
09:19 27.6 °C 7.4 °C 1006.4 hPa OSO 7.8 km/h 10 km/h 28% 0.0 mm
09:24 27.8 °C 7.6 °C 1006.4 hPa OSO 6.5 km/h 9.7 km/h 28% 0.0 mm
09:29 28 °C 7.8 °C 1006.4 hPa OSO 5.6 km/h 9.5 km/h 28% 0.0 mm
09:34 28.1 °C 7.9 °C 1006.4 hPa OSO 3.9 km/h 13 km/h 28% 0.0 mm
09:39 28.1 °C 7.9 °C 1006.4 hPa OSO 4.5 km/h 13 km/h 28% 0.0 mm
09:44 28.3 °C 8 °C 1006.4 hPa SO 5.8 km/h 11.3 km/h 27.9% 0.0 mm
09:49 28.5 °C 8.2 °C 1006.4 hPa SSO 5.2 km/h 9.7 km/h 28% 0.0 mm
09:54 28.6 °C 8.3 °C 1006.4 hPa SO 3.9 km/h 11.1 km/h 28.1% 0.0 mm
09:59 28.8 °C 8.2 °C 1006.4 hPa ONO 4.5 km/h 18.3 km/h 27.5% 0.0 mm
10:04 29.1 °C 7.6 °C 1006.4 hPa ONO 5.8 km/h 22.5 km/h 26.1% 0.0 mm
10:09 29.2 °C 7.7 °C 1006.4 hPa ONO 7.7 km/h 22.5 km/h 25.9% 0.0 mm
10:14 29.2 °C 7.4 °C 1006.4 hPa ONO 11.9 km/h 22.5 km/h 25.5% 0.0 mm
10:19 29.4 °C 7.4 °C 1006.4 hPa ONO 11.7 km/h 20.9 km/h 25.2% 0.0 mm
10:24 29.4 °C 7.3 °C 1006.3 hPa ONO 11.1 km/h 20.9 km/h 25% 0.0 mm
10:29 29.4 °C 7.3 °C 1006.3 hPa ONO 11.1 km/h 19.3 km/h 25% 0.0 mm
10:34 29.6 °C 7.5 °C 1006.3 hPa OSO 11.1 km/h 19.3 km/h 25% 0.0 mm
10:39 29.8 °C 7.6 °C 1006.2 hPa Oeste 9.5 km/h 11.3 km/h 25% 0.0 mm
10:44 29.9 °C 7.3 °C 1006.2 hPa Oeste 5.8 km/h 15.6 km/h 24.4% 0.0 mm
10:49 29.9 °C 7.1 °C 1006.2 hPa ONO 6 km/h 16.1 km/h 24% 0.0 mm
10:54 30.1 °C 7.3 °C 1005.9 hPa OSO 6.5 km/h 11.3 km/h 24% 0.0 mm
10:59 30.3 °C 7.5 °C 1005.9 hPa Oeste 6.2 km/h 11.9 km/h 24% 0.0 mm
11:04 30.3 °C 7.5 °C 1005.9 hPa SO 5.8 km/h 15.6 km/h 24% 0.0 mm
11:09 30.4 °C 7.5 °C 1005.7 hPa OSO 6.3 km/h 16.1 km/h 23.9% 0.0 mm
11:14 30.5 °C 7.1 °C 1005.7 hPa SSO 7.6 km/h 19.8 km/h 23.2% 0.0 mm
11:19 30.5 °C 7 °C 1005.7 hPa OSO 7.8 km/h 20.9 km/h 23% 0.0 mm
11:24 30.7 °C 7.3 °C 1005.5 hPa OSO 8.4 km/h 20.9 km/h 23.2% 0.0 mm
11:29 30.8 °C 7.3 °C 1005.5 hPa OSO 8.4 km/h 16.1 km/h 23% 0.0 mm
11:34 30.9 °C 7 °C 1005.5 hPa OSO 8.4 km/h 19 km/h 22.5% 0.0 mm
11:39 31 °C 6.8 °C 1005.5 hPa SO 9 km/h 20.4 km/h 22.1% 0.0 mm
11:44 30.9 °C 6.7 °C 1005.5 hPa Oeste 10.3 km/h 20.9 km/h 22% 0.0 mm
11:49 31 °C 6.8 °C 1005.5 hPa Oeste 10.2 km/h 18.5 km/h 22% 0.0 mm
11:54 31 °C 6.8 °C 1005.4 hPa OSO 10 km/h 19.3 km/h 22% 0.0 mm
11:59 31.1 °C 6.9 °C 1005.4 hPa OSO 9.4 km/h 19.3 km/h 22% 0.0 mm
12:04 31.3 °C 6.8 °C 1005.4 hPa OSO 8.4 km/h 20.4 km/h 21.7% 0.0 mm
12:09 31.3 °C 6.4 °C 1005.4 hPa ONO 8.8 km/h 20.9 km/h 21% 0.0 mm
12:14 31.3 °C 6.3 °C 1005.4 hPa SSO 10 km/h 20.9 km/h 21% 0.0 mm
12:19 31.3 °C 6.3 °C 1005.4 hPa Sur 10.1 km/h 20.9 km/h 21% 0.0 mm
12:24 31.3 °C 6.4 °C 1005.4 hPa ESE 10.3 km/h 14.5 km/h 21% 0.0 mm
12:29 31.7 °C 6.7 °C 1005.4 hPa ESE 8.6 km/h 13.7 km/h 21% 0.0 mm
12:34 32.2 °C 7 °C 1005.4 hPa SSE 5 km/h 14.5 km/h 21% 0.0 mm
12:39 32.3 °C 7.1 °C 1005.2 hPa SSE 5.8 km/h 15.6 km/h 20.9% 0.0 mm
12:44 32.3 °C 7.2 °C 1005.2 hPa Este 7.6 km/h 16.1 km/h 21% 0.0 mm
12:49 32.3 °C 7.2 °C 1005.2 hPa ESE 7.9 km/h 14.8 km/h 21% 0.0 mm
12:54 32.3 °C 7.2 °C 1005.1 hPa Sur 8.7 km/h 14.8 km/h 21% 0.0 mm
12:59 32.3 °C 7.1 °C 1005.1 hPa SE 8.6 km/h 16.4 km/h 20.8% 0.0 mm
13:04 32.5 °C 6.7 °C 1005.1 hPa SSO 8.4 km/h 16.7 km/h 20.2% 0.0 mm
13:09 32.6 °C 6.8 °C 1004.8 hPa Sur 9 km/h 24.1 km/h 20.1% 0.0 mm
13:14 32.6 °C 6.7 °C 1004.8 hPa Sur 10.3 km/h 24.1 km/h 20% 0.0 mm
13:19 32.6 °C 6.7 °C 1004.8 hPa SO 10.3 km/h 18.5 km/h 20% 0.0 mm
13:24 32.8 °C 6.9 °C 1004.5 hPa NNO 10.3 km/h 19.3 km/h 20% 0.0 mm
13:29 33.1 °C 7 °C 1004.5 hPa Este 8.5 km/h 11.9 km/h 19.9% 0.0 mm
13:34 33.2 °C 6.6 °C 1004.5 hPa Sur 4.7 km/h 14.8 km/h 19.2% 0.0 mm
13:39 33.1 °C 6.7 °C 1004.3 hPa SE 5.3 km/h 14.5 km/h 19.5% 0.0 mm
13:44 33.3 °C 6.7 °C 1004.3 hPa SO 6.9 km/h 13 km/h 19.2% 0.0 mm
13:49 33.6 °C 6.8 °C 1004.3 hPa OSO 7.1 km/h 13 km/h 19% 0.0 mm
13:54 33.6 °C 6.9 °C 1004.1 hPa SSE 7.6 km/h 14.8 km/h 19.1% 0.0 mm
13:59 33.7 °C 6.9 °C 1004.1 hPa ONO 7.3 km/h 14.8 km/h 19% 0.0 mm
14:04 33.8 °C 6.8 °C 1004.1 hPa SO 6.9 km/h 14.5 km/h 18.8% 0.0 mm
14:09 33.8 °C 6.3 °C 1003.7 hPa SO 6.9 km/h 18.3 km/h 18.1% 0.0 mm
14:14 33.8 °C 6.5 °C 1003.7 hPa NNE 6.9 km/h 19.3 km/h 18.4% 0.0 mm
14:19 33.8 °C 6.4 °C 1003.7 hPa ONO 7.4 km/h 19.3 km/h 18.3% 0.0 mm
14:24 33.9 °C 6.3 °C 1003.6 hPa OSO 8.4 km/h 16.7 km/h 18% 0.0 mm
14:29 34.3 °C 6.2 °C 1003.6 hPa Sur 8.5 km/h 24.1 km/h 17.5% 0.0 mm
14:34 34.2 °C 6.3 °C 1003.6 hPa ENE 8.7 km/h 24.1 km/h 17.8% 0.0 mm
14:39 34.6 °C 6.5 °C 1003.5 hPa SE 8.1 km/h 20.9 km/h 17.7% 0.0 mm
14:44 34.8 °C 6.1 °C 1003.5 hPa Sur 6.9 km/h 20.9 km/h 17% 0.0 mm
14:49 34.8 °C 6.3 °C 1003.5 hPa SSO 7.9 km/h 20.9 km/h 17.2% 0.0 mm
14:54 34.9 °C 6.2 °C 1003.2 hPa SSO 10.3 km/h 25.9 km/h 17% 0.0 mm
14:59 34.9 °C 6 °C 1003.2 hPa SO 10.9 km/h 25.7 km/h 16.7% 0.0 mm
15:04 35.1 °C 6.1 °C 1003.2 hPa SSE 11.9 km/h 20.9 km/h 16.7% 0.0 mm
15:09 35.2 °C 6.2 °C 1003.0 hPa Sur 11.3 km/h 22.5 km/h 16.7% 0.0 mm
15:14 35.5 °C 6.2 °C 1003.0 hPa SO 10 km/h 22.5 km/h 16.4% 0.0 mm
15:19 35.8 °C 6.1 °C 1003.0 hPa SSO 9.2 km/h 16.1 km/h 16% 0.0 mm
15:24 35.9 °C 6.2 °C 1002.9 hPa SSO 7.6 km/h 16.7 km/h 16% 0.0 mm
15:29 35.8 °C 6.1 °C 1002.9 hPa ENE 7.9 km/h 18 km/h 16.1% 0.0 mm
15:34 35.8 °C 6.1 °C 1002.9 hPa North 8.7 km/h 19.3 km/h 16.1% 0.0 mm
15:39 35.8 °C 6 °C 1002.7 hPa NNE 9.1 km/h 19.3 km/h 16% 0.0 mm
15:44 35.7 °C 5.9 °C 1002.7 hPa North 10 km/h 25.9 km/h 16% 0.0 mm
15:49 35.6 °C 6.6 °C 1002.7 hPa North 10.3 km/h 25.7 km/h 16.8% 0.0 mm
15:54 35.5 °C 6.7 °C 1002.6 hPa North 11.1 km/h 22.5 km/h 17% 0.0 mm
15:59 35.3 °C 8.5 °C 1002.6 hPa NO 10.8 km/h 20.4 km/h 19.5% 0.0 mm
16:04 35.1 °C 10.5 °C 1002.6 hPa NO 10.3 km/h 27.4 km/h 22.5% 0.0 mm
16:09 34.9 °C 10.9 °C 1002.5 hPa ONO 11.4 km/h 27.8 km/h 23.3% 0.0 mm
16:14 34.8 °C 11.3 °C 1002.5 hPa NO 13.7 km/h 26.2 km/h 24% 0.0 mm
16:19 34.8 °C 11.2 °C 1002.5 hPa NNO 14.5 km/h 33.3 km/h 24% 0.0 mm
16:24 34.7 °C 11.4 °C 1002.3 hPa NNO 16.4 km/h 38.9 km/h 24.3% 0.0 mm
16:29 35 °C 11.5 °C 1002.3 hPa NO 16.3 km/h 38.6 km/h 24.1% 0.0 mm
16:34 35.1 °C 11.5 °C 1002.3 hPa NNO 16.1 km/h 30.6 km/h 24.1% 0.0 mm
16:39 35.1 °C 11.8 °C 1002.1 hPa NO 15.4 km/h 28.2 km/h 24.5% 0.0 mm
16:44 35.1 °C 11.8 °C 1002.1 hPa ONO 13.7 km/h 27.4 km/h 24.4% 0.0 mm
16:49 35.3 °C 11.7 °C 1002.1 hPa NO 13.7 km/h 43.1 km/h 24% 0.0 mm
16:54 35.4 °C 11.7 °C 1002.0 hPa NO 13.7 km/h 44.4 km/h 24% 0.0 mm
16:59 35.2 °C 11.6 °C 1002.0 hPa NO 17.9 km/h 46.3 km/h 24% 0.0 mm
17:04 35.4 °C 11.7 °C 1002.0 hPa ONO 25.1 km/h 46.7 km/h 24% 0.0 mm
17:09 35.4 °C 11.8 °C 1001.9 hPa NO 22.8 km/h 35.9 km/h 24% 0.0 mm
17:14 35.2 °C 11.6 °C 1001.9 hPa NO 18 km/h 41.2 km/h 24% 0.0 mm
17:19 35.1 °C 11.9 °C 1001.9 hPa NO 19.7 km/h 41.8 km/h 24.6% 0.0 mm
17:24 35.2 °C 11.8 °C 1001.8 hPa ONO 23.3 km/h 46.3 km/h 24.3% 0.0 mm
17:29 35.3 °C 11.7 °C 1001.8 hPa ONO 23.1 km/h 46.7 km/h 24% 0.0 mm
17:34 35.2 °C 11.8 °C 1001.8 hPa NO 22.5 km/h 46.8 km/h 24.4% 0.0 mm
17:39 35.3 °C 11.9 °C 1001.7 hPa ONO 23.1 km/h 46.7 km/h 24.4% 0.0 mm
17:44 35.2 °C 11.6 °C 1001.7 hPa ONO 24.5 km/h 38.6 km/h 24% 0.0 mm
17:49 35.3 °C 12 °C 1001.8 hPa ONO 23.6 km/h 37.8 km/h 24.6% 0.0 mm
17:54 35.2 °C 11.6 °C 1001.8 hPa ONO 21.7 km/h 40.7 km/h 24% 0.0 mm
17:59 35.1 °C 11.7 °C 1001.8 hPa ONO 22.3 km/h 43.1 km/h 24.4% 0.0 mm
18:04 35.2 °C 11.7 °C 1001.9 hPa ONO 23.3 km/h 43.5 km/h 24.2% 0.0 mm
18:09 35 °C 11.5 °C 1001.9 hPa ONO 22.9 km/h 39.6 km/h 24.1% 0.0 mm
18:14 34.9 °C 11.5 °C 1001.9 hPa NO 22.1 km/h 42.6 km/h 24.2% 0.0 mm
18:19 34.8 °C 11.3 °C 1001.9 hPa ONO 22.5 km/h 48.1 km/h 24% 0.0 mm
18:24 34.6 °C 11.1 °C 1001.9 hPa ONO 23.3 km/h 48.3 km/h 24.1% 0.0 mm
18:29 34.4 °C 11.1 °C 1001.9 hPa ONO 24.9 km/h 45.1 km/h 24.4% 0.0 mm
18:34 34.5 °C 11.1 °C 1002.1 hPa ONO 28.2 km/h 46.8 km/h 24.2% 0.0 mm
18:39 34.4 °C 11 °C 1002.1 hPa ONO 27.5 km/h 46.7 km/h 24.1% 0.0 mm
18:44 34.4 °C 10.9 °C 1002.1 hPa ONO 26.2 km/h 44.4 km/h 24% 0.0 mm
18:49 34.5 °C 11 °C 1002.1 hPa ONO 25 km/h 45.1 km/h 24% 0.0 mm
18:54 34.5 °C 11 °C 1002.0 hPa ONO 22.1 km/h 48.1 km/h 24% 0.0 mm
18:59 34.4 °C 10.7 °C 1002.0 hPa ONO 23.1 km/h 49.2 km/h 23.6% 0.0 mm
19:04 34.4 °C 10.6 °C 1002.0 hPa ONO 25.1 km/h 50.1 km/h 23.6% 0.0 mm
19:09 34.4 °C 10.8 °C 1002.0 hPa ONO 25.5 km/h 48.1 km/h 23.8% 0.0 mm
19:14 34.3 °C 10.8 °C 1002.0 hPa ONO 26.2 km/h 48.3 km/h 24% 0.0 mm
19:19 34.2 °C 10.7 °C 1002.2 hPa ONO 26.8 km/h 42.6 km/h 24% 0.0 mm
19:24 34.1 °C 10.7 °C 1002.2 hPa ONO 28.2 km/h 46.8 km/h 24% 0.0 mm
19:29 34.2 °C 10.7 °C 1002.2 hPa ONO 26.8 km/h 46.7 km/h 24% 0.0 mm
19:34 34.3 °C 10.8 °C 1002.4 hPa ONO 23.7 km/h 30.6 km/h 24% 0.0 mm
19:39 34.3 °C 10.9 °C 1002.4 hPa ONO 21.9 km/h 32.8 km/h 24% 0.0 mm
19:44 34.2 °C 11.3 °C 1002.4 hPa ONO 18.4 km/h 33.8 km/h 24.9% 0.0 mm
19:49 34.1 °C 11.3 °C 1002.5 hPa ONO 18.9 km/h 33.8 km/h 25% 0.0 mm
19:54 34.1 °C 11.3 °C 1002.5 hPa Oeste 20.1 km/h 33.3 km/h 25% 0.0 mm
19:59 34.1 °C 11.2 °C 1002.5 hPa Oeste 19.2 km/h 38.9 km/h 25% 0.0 mm
20:04 33.8 °C 11.4 °C 1002.7 hPa ONO 17.2 km/h 40.7 km/h 25.6% 0.0 mm
20:09 33.7 °C 11.6 °C 1002.7 hPa ONO 17.7 km/h 40.2 km/h 26% 0.0 mm
20:14 33.6 °C 11.5 °C 1002.7 hPa ONO 19 km/h 38.9 km/h 26% 0.0 mm
20:19 33.4 °C 11.3 °C 1002.8 hPa ONO 20.3 km/h 38.6 km/h 26% 0.0 mm
20:24 33.4 °C 11.3 °C 1002.8 hPa Oeste 23.3 km/h 37 km/h 26% 0.0 mm
20:29 33.4 °C 11.4 °C 1002.8 hPa Oeste 22.2 km/h 37 km/h 26.1% 0.0 mm
20:34 33.4 °C 11.8 °C 1003.0 hPa Oeste 19.8 km/h 33.8 km/h 27% 0.0 mm
20:39 33.3 °C 11.8 °C 1003.0 hPa Oeste 19.1 km/h 37 km/h 27% 0.0 mm
20:44 33.3 °C 11.8 °C 1003.0 hPa Oeste 17.2 km/h 37.8 km/h 27% 0.0 mm
20:49 33.2 °C 11.9 °C 1003.1 hPa Oeste 17.5 km/h 37 km/h 27.5% 0.0 mm
20:54 33 °C 12 °C 1003.1 hPa Oeste 18.4 km/h 33.5 km/h 28% 0.0 mm
20:59 32.9 °C 12 °C 1003.1 hPa Oeste 18 km/h 33.8 km/h 28% 0.0 mm
21:04 32.8 °C 12.2 °C 1003.3 hPa ONO 17.2 km/h 30.6 km/h 28.5% 0.0 mm
21:09 32.7 °C 12.3 °C 1003.3 hPa Oeste 16.1 km/h 27.4 km/h 29% 0.0 mm
21:14 32.6 °C 12.3 °C 1003.3 hPa Oeste 13.7 km/h 25.9 km/h 29% 0.0 mm
21:19 32.5 °C 12.2 °C 1003.5 hPa Oeste 14 km/h 25.9 km/h 29% 0.0 mm
21:24 32.4 °C 12.1 °C 1003.5 hPa Oeste 14.8 km/h 25.7 km/h 29% 0.0 mm
21:29 32.4 °C 12.1 °C 1003.5 hPa OSO 14 km/h 22.5 km/h 29% 0.0 mm
21:34 32.3 °C 12 °C 1003.8 hPa Oeste 12.2 km/h 20.9 km/h 29% 0.0 mm
21:39 32.3 °C 12.1 °C 1003.8 hPa Oeste 12.1 km/h 27.8 km/h 29.2% 0.0 mm
21:44 32.2 °C 12.4 °C 1003.8 hPa Oeste 11.9 km/h 27.4 km/h 30% 0.0 mm
21:49 32.1 °C 12.3 °C 1004.0 hPa Oeste 12.5 km/h 29.6 km/h 30% 0.0 mm
21:54 32.1 °C 12.3 °C 1004.0 hPa Oeste 14 km/h 29 km/h 30% 0.0 mm
21:59 32.1 °C 12.3 °C 1004.0 hPa Oeste 15.1 km/h 33.3 km/h 30% 0.0 mm
22:04 32 °C 12.3 °C 1004.3 hPa Oeste 17.2 km/h 33.8 km/h 30% 0.0 mm
22:09 31.9 °C 12.2 °C 1004.3 hPa Oeste 16.5 km/h 33.3 km/h 30% 0.0 mm
22:14 31.9 °C 12.2 °C 1004.3 hPa Oeste 14.8 km/h 33.8 km/h 30% 0.0 mm
22:19 31.8 °C 12.5 °C 1004.6 hPa Oeste 14.6 km/h 29.1 km/h 30.9% 0.0 mm
22:24 31.8 °C 12.6 °C 1004.6 hPa Oeste 14 km/h 29.6 km/h 31% 0.0 mm
22:29 31.7 °C 12.5 °C 1004.6 hPa Oeste 14.3 km/h 25.9 km/h 31% 0.0 mm
22:34 31.7 °C 12.5 °C 1005.0 hPa Oeste 14.8 km/h 25.7 km/h 31.2% 0.0 mm
22:39 31.5 °C 12.9 °C 1005.0 hPa Oeste 14.2 km/h 24.1 km/h 32% 0.0 mm
22:44 31.4 °C 12.7 °C 1005.0 hPa Oeste 13 km/h 24.1 km/h 32% 0.0 mm
22:49 31.3 °C 12.7 °C 1005.4 hPa Oeste 12.4 km/h 28.2 km/h 32% 0.0 mm
22:54 31.3 °C 12.6 °C 1005.4 hPa Oeste 11.1 km/h 27.4 km/h 32% 0.0 mm
22:59 31.2 °C 12.8 °C 1005.4 hPa Oeste 10.8 km/h 20.9 km/h 32.5% 0.0 mm
23:04 31.2 °C 13 °C 1005.6 hPa Oeste 10.3 km/h 19.3 km/h 33% 0.0 mm
23:09 31.1 °C 12.9 °C 1005.6 hPa NO 10.6 km/h 24.1 km/h 33% 0.0 mm
23:14 30.9 °C 13.2 °C 1005.6 hPa ONO 11.1 km/h 27.8 km/h 33.9% 0.0 mm
23:19 30.7 °C 13.3 °C 1005.9 hPa ONO 12.5 km/h 30.6 km/h 34.5% 0.0 mm
23:24 30.7 °C 13.4 °C 1005.9 hPa ONO 15.6 km/h 33.3 km/h 35% 0.0 mm
23:29 30.4 °C 13.3 °C 1005.9 hPa ONO 15.8 km/h 33.8 km/h 35% 0.0 mm
23:34 30.3 °C 13.5 °C 1006.1 hPa ONO 16.1 km/h 33.8 km/h 35.9% 0.0 mm
23:39 30.2 °C 13.5 °C 1006.1 hPa ONO 17 km/h 35.2 km/h 36% 0.0 mm
23:44 30.1 °C 13.4 °C 1006.1 hPa NO 19 km/h 35.4 km/h 36% 0.0 mm
23:49 30.1 °C 13.6 °C 1006.2 hPa ONO 19.3 km/h 33.8 km/h 36.7% 0.0 mm
23:54 29.9 °C 13.6 °C 1006.2 hPa ONO 20.1 km/h 27.8 km/h 37% 0.0 mm
23:59 29.8 °C 13.6 °C 1006.2 hPa ONO 18.7 km/h 27.4 km/h 37% 0.0 mm
Murcia-Puente Tocinos, España
Compliments of Weather Underground - 3 mb

La estación de MeteoMurcia.com, publica sus datos en los siguientes proyectos:

Weather Underground PWS IMURCIAP2 Meteoclimatic www.awekas.at

W3Counter
Web Analytics